Time;durP1;ratioP1;P1;durP2;ratioP2;P2;SDS_P1;SDS_P2;PMS_P1;PMS_P2;Temp;Humidity;BMP_temperature;BMP_pressure;BME280_temperature;BME280_humidity;BME280_pressure;Samples;Min_cycle;Max_cycle;Signal;HPM_P1;HPM_P2
2021/12/12 00:00:27;;;;;;;;;;;;;;;10.01;100.00;101866.84;5075488;28;20269;-52
2021/12/12 00:03:01;;;;;;;;;;;;;;;9.99;100.00;101872.31;5075903;28;19920;-52
2021/12/12 00:05:47;;;;;;;;;;;;;;;10.06;100.00;101861.00;5074799;28;20314;-52
2021/12/12 00:08:14;;;;;;;;;;;;;;;10.29;100.00;101847.78;5076043;28;20367;-53
2021/12/12 00:10:42;;;;;;;;;;;;;;;10.02;100.00;101849.78;5075567;28;19926;-51
2021/12/12 00:13:10;;;;;;;;;;;;;;;10.05;100.00;101849.47;5074287;28;19975;-52
2021/12/12 00:15:35;;;;;;;;;;;;;;;10.29;100.00;101847.78;5075550;28;19943;-52
2021/12/12 00:18:01;;;;;;;;;;;;;;;10.23;100.00;101845.78;5075213;28;19921;-51
2021/12/12 00:20:27;;;;;;;;;;;;;;;10.44;100.00;101842.59;5073647;28;19924;-53
2021/12/12 00:22:58;;;;;;;;;;;;;;;10.14;100.00;101837.75;5075458;28;19920;-54
2021/12/12 00:25:24;;;;;;;;;;;;;;;10.30;100.00;101842.28;5073803;28;19970;-53
2021/12/12 00:27:49;;;;;;;;;;;;;;;9.71;100.00;101843.25;5075251;28;19932;-51
2021/12/12 00:30:15;;;;;;;;;;;;;;;10.15;100.00;101836.78;5075159;28;20323;-50
2021/12/12 00:32:40;;;;;;;;;;;;;;;10.04;100.00;101834.41;5057359;28;19921;-50
2021/12/12 00:35:08;;;;;;;;;;;;;;;10.04;100.00;101843.28;5040416;28;19950;-55
2021/12/12 00:37:34;;;;;;;;;;;;;;;9.86;100.00;101840.75;5074929;28;20011;-53
2021/12/12 00:40:02;;;;;;;;;;;;;;;9.88;100.00;101833.41;5073880;28;20374;-53
2021/12/12 00:42:32;;;;;;;;;;;;;;;10.12;100.00;101818.38;5073848;28;19973;-50
2021/12/12 00:44:58;;;;;;;;;;;;;;;10.39;100.00;101828.88;5075518;28;20025;-53
2021/12/12 00:47:25;;;;;;;;;;;;;;;10.00;100.00;101822.41;5073816;28;20323;-53
2021/12/12 00:49:51;;;;;;;;;;;;;;;9.93;100.00;101811.53;5073430;28;19947;-56
2021/12/12 00:52:17;;;;;;;;;;;;;;;10.09;100.00;101816.03;5074101;28;19936;-52
2021/12/12 00:54:44;;;;;;;;;;;;;;;9.95;100.00;101817.56;5057433;28;20414;-52
2021/12/12 00:57:11;;;;;;;;;;;;;;;9.89;100.00;101810.22;5073217;28;20023;-54
2021/12/12 00:59:37;;;;;;;;;;;;;;;10.15;100.00;101811.88;5074778;28;20280;-54
2021/12/12 01:02:05;;;;;;;;;;;;;;;10.17;100.00;101810.72;5056838;28;19928;-51
2021/12/12 01:04:32;;;;;;;;;;;;;;;10.03;100.00;101814.03;5074431;28;19917;-54
2021/12/12 01:06:59;;;;;;;;;;;;;;;9.96;100.00;101811.19;5074614;28;19959;-50
2021/12/12 01:09:27;;;;;;;;;;;;;;;10.04;100.00;101810.38;5073255;28;20365;-53
2021/12/12 01:11:53;;;;;;;;;;;;;;;9.99;100.00;101807.38;5074197;28;19921;-52
2021/12/12 01:14:22;;;;;;;;;;;;;;;10.04;100.00;101800.53;5074450;28;19948;-51
2021/12/12 01:16:51;;;;;;;;;;;;;;;9.93;100.00;101803.53;5074451;28;19930;-50
2021/12/12 01:19:22;;;;;;;;;;;;;;;9.98;100.00;101800.34;5074460;28;19924;-50
2021/12/12 01:21:50;;;;;;;;;;;;;;;10.09;100.00;101805.34;5074134;28;19920;-49
2021/12/12 01:24:19;;;;;;;;;;;;;;;10.13;100.00;101801.31;5074236;28;19921;-49
2021/12/12 01:26:46;;;;;;;;;;;;;;;9.67;100.00;101811.69;5073020;28;19926;-48
2021/12/12 01:29:11;;;;;;;;;;;;;;;10.01;100.00;101816.06;5073438;28;19920;-48
2021/12/12 01:31:39;;;;;;;;;;;;;;;10.00;100.00;101811.72;5071871;28;20281;-50
2021/12/12 01:34:10;;;;;;;;;;;;;;;10.06;100.00;101811.03;5073528;28;19920;-49
2021/12/12 01:39:26;;;;;;;;;;;;;;;9.84;100.00;101816.03;5073260;28;19921;-50
2021/12/12 01:42:21;;;;;;;;;;;;;;;9.90;100.00;101814.56;5072330;28;19924;-48
2021/12/12 01:45:03;;;;;;;;;;;;;;;9.94;100.00;101823.09;5068742;28;20089;-48
2021/12/12 01:47:32;;;;;;;;;;;;;;;9.95;100.00;101819.41;5071916;28;19921;-46
2021/12/12 01:49:59;;;;;;;;;;;;;;;10.02;100.00;101829.22;5071776;28;20380;-52
2021/12/12 01:52:27;;;;;;;;;;;;;;;9.97;100.00;101812.88;5071982;28;19921;-49
2021/12/12 01:54:57;;;;;;;;;;;;;;;9.99;100.00;101813.53;5072272;28;20272;-54
2021/12/12 01:57:28;;;;;;;;;;;;;;;9.76;100.00;101819.53;5072757;28;19947;-52
2021/12/12 01:59:56;;;;;;;;;;;;;;;10.13;100.00;101819.22;5072724;28;20023;-51
2021/12/12 02:02:27;;;;;;;;;;;;;;;10.09;100.00;101829.41;5070827;28;20012;-51
2021/12/12 02:04:55;;;;;;;;;;;;;;;10.18;100.00;101815.03;5055457;28;19924;-52
2021/12/12 02:07:29;;;;;;;;;;;;;;;10.32;100.00;101818.88;5072187;28;19948;-49
2021/12/12 02:09:58;;;;;;;;;;;;;;;10.07;100.00;101826.06;5072852;28;19943;-54
2021/12/12 02:12:23;;;;;;;;;;;;;;;10.08;100.00;101819.72;5071192;28;19946;-52
2021/12/12 02:14:49;;;;;;;;;;;;;;;10.04;100.00;101813.03;5055274;28;19921;-53
2021/12/12 02:17:22;;;;;;;;;;;;;;;10.08;100.00;101817.03;5072861;28;19954;-48
2021/12/12 02:35:59;;;;;;;;;;;;;;;10.20;100.00;101790.81;5071921;28;19920;-52
2021/12/12 02:38:27;;;;;;;;;;;;;;;9.97;100.00;101785.34;5073003;28;19925;-52
2021/12/12 02:40:54;;;;;;;;;;;;;;;10.03;100.00;101781.97;5072666;28;20009;-52
2021/12/12 02:43:22;;;;;;;;;;;;;;;9.76;100.00;101784.00;5072626;28;19917;-51
2021/12/12 02:45:48;;;;;;;;;;;;;;;10.14;100.00;101772.78;5072343;28;20388;-48
2021/12/12 02:48:19;;;;;;;;;;;;;;;10.00;100.00;101775.13;5072533;28;19957;-47
2021/12/12 02:50:47;;;;;;;;;;;;;;;9.87;100.00;101793.50;5071274;28;20007;-49
2021/12/12 02:53:23;;;;;;;;;;;;;;;10.47;100.00;101767.38;5072485;28;19920;-48
2021/12/12 02:55:51;;;;;;;;;;;;;;;10.08;100.00;101768.94;5072316;28;20034;-53
2021/12/12 02:58:20;;;;;;;;;;;;;;;10.06;100.00;101767.47;5072574;28;20003;-52
2021/12/12 03:00:52;;;;;;;;;;;;;;;9.82;100.00;101759.28;5072201;28;19959;-53
2021/12/12 03:03:17;;;;;;;;;;;;;;;10.06;100.00;101757.59;5072304;28;20014;-54
2021/12/12 03:05:45;;;;;;;;;;;;;;;9.71;100.00;101764.97;5072186;28;20380;-52
2021/12/12 03:08:11;;;;;;;;;;;;;;;9.96;100.00;101759.63;5072336;28;20003;-48
2021/12/12 03:10:38;;;;;;;;;;;;;;;9.95;100.00;101769.44;5072171;28;19930;-48
2021/12/12 03:13:05;;;;;;;;;;;;;;;10.23;100.00;101758.38;5072082;28;19920;-52
2021/12/12 03:15:34;;;;;;;;;;;;;;;10.04;100.00;101755.09;5074705;28;19920;-50
2021/12/12 03:18:00;;;;;;;;;;;;;;;9.95;100.00;101752.59;5075943;28;19926;-50
2021/12/12 03:20:31;;;;;;;;;;;;;;;10.23;100.00;101755.72;5076397;28;20384;-48
2021/12/12 03:23:07;;;;;;;;;;;;;;;10.24;100.00;101751.22;5075665;28;19986;-52
2021/12/12 03:25:34;;;;;;;;;;;;;;;10.28;100.00;101758.72;5074938;28;19966;-50
2021/12/12 03:28:00;;;;;;;;;;;;;;;10.00;100.00;101760.94;5075493;28;19962;-48
2021/12/12 03:30:25;;;;;;;;;;;;;;;10.10;100.00;101755.41;5075439;28;19924;-50
2021/12/12 03:32:51;;;;;;;;;;;;;;;10.28;100.00;101744.50;5075312;28;19936;-51
2021/12/12 03:35:16;;;;;;;;;;;;;;;10.05;100.00;101745.22;5075321;28;19935;-47
2021/12/12 03:37:43;;;;;;;;;;;;;;;10.25;100.00;101744.84;5074304;28;20020;-47
2021/12/12 03:40:15;;;;;;;;;;;;;;;10.13;100.00;101745.19;5075342;28;19920;-48
2021/12/12 03:42:41;;;;;;;;;;;;;;;10.21;100.00;101743.53;5075518;28;20018;-46
2021/12/12 03:45:07;;;;;;;;;;;;;;;10.13;100.00;101747.06;5074186;28;19947;-46
2021/12/12 03:47:42;;;;;;;;;;;;;;;10.46;100.00;101744.31;5074154;28;19921;-49
2021/12/12 03:50:13;;;;;;;;;;;;;;;10.57;100.00;101746.63;5073876;28;19970;-48
2021/12/12 03:52:38;;;;;;;;;;;;;;;10.13;100.00;101736.38;5074349;28;19933;-49
2021/12/12 03:55:04;;;;;;;;;;;;;;;10.12;100.00;101738.19;5075467;28;19936;-51
2021/12/12 03:57:30;;;;;;;;;;;;;;;10.43;100.00;101748.19;5057915;28;19920;-47
2021/12/12 03:59:56;;;;;;;;;;;;;;;10.42;100.00;101751.00;5074949;28;20303;-48
2021/12/12 04:02:21;;;;;;;;;;;;;;;10.25;100.00;101747.53;5057565;28;19978;-50
2021/12/12 04:04:47;;;;;;;;;;;;;;;10.68;100.00;101749.91;5074906;28;20007;-47
2021/12/12 04:07:15;;;;;;;;;;;;;;;10.70;100.00;101743.41;5075013;28;19954;-52
2021/12/12 04:09:41;;;;;;;;;;;;;;;10.43;100.00;101750.00;5074546;28;19925;-47
2021/12/12 04:12:08;;;;;;;;;;;;;;;10.45;100.00;101740.81;5073786;28;20035;-47
2021/12/12 04:14:33;;;;;;;;;;;;;;;10.48;100.00;101744.97;5074848;28;19951;-49
2021/12/12 04:17:01;;;;;;;;;;;;;;;10.35;100.00;101747.34;5074439;28;20284;-52
2021/12/12 04:19:26;;;;;;;;;;;;;;;10.36;100.00;101749.00;5073921;28;19924;-48
2021/12/12 04:21:52;;;;;;;;;;;;;;;10.55;100.00;101753.16;5074611;28;20351;-53
2021/12/12 04:24:19;;;;;;;;;;;;;;;10.65;100.00;101748.44;5074125;28;19921;-52
2021/12/12 04:26:45;;;;;;;;;;;;;;;10.65;100.00;101745.75;5073437;28;19927;-48
2021/12/12 04:29:16;;;;;;;;;;;;;;;10.55;100.00;101747.78;5073169;28;19920;-49
2021/12/12 04:31:44;;;;;;;;;;;;;;;10.36;100.00;101743.66;5074528;28;19920;-53
2021/12/12 04:34:10;;;;;;;;;;;;;;;10.68;100.00;101748.09;5074523;28;19921;-53
2021/12/12 04:36:37;;;;;;;;;;;;;;;10.52;100.00;101745.47;5074438;28;19931;-53
2021/12/12 04:39:07;;;;;;;;;;;;;;;10.50;100.00;101755.50;5073570;28;19927;-53
2021/12/12 04:41:33;;;;;;;;;;;;;;;10.39;100.00;101749.50;5074571;28;19955;-48
2021/12/12 04:43:58;;;;;;;;;;;;;;;10.60;100.00;101745.44;5072753;28;19963;-50
2021/12/12 04:46:36;;;;;;;;;;;;;;;10.79;100.00;101746.88;5073720;28;19970;-49
2021/12/12 04:51:56;;;;;;;;;;;;;;;10.68;100.00;101756.13;5074030;28;19935;-50
2021/12/12 04:54:30;;;;;;;;;;;;;;;10.50;100.00;101767.06;5072711;28;20035;-48
2021/12/12 04:57:01;;;;;;;;;;;;;;;10.57;100.00;101753.81;5074179;28;19967;-49
2021/12/12 04:59:34;;;;;;;;;;;;;;;10.93;100.00;101760.50;5073975;28;20450;-47
2021/12/12 05:02:04;;;;;;;;;;;;;;;11.26;100.00;101763.84;5074489;28;19924;-48
2021/12/12 05:04:50;;;;;;;;;;;;;;;11.11;100.00;101766.44;5074178;28;20315;-52
2021/12/12 05:07:21;;;;;;;;;;;;;;;10.86;100.00;101769.25;5073386;28;20383;-48
2021/12/12 05:09:50;;;;;;;;;;;;;;;10.98;100.00;101768.88;5074175;28;19924;-48
2021/12/12 05:12:21;;;;;;;;;;;;;;;10.80;100.00;101761.06;5073322;28;19956;-47
2021/12/12 05:14:53;;;;;;;;;;;;;;;10.66;100.00;101755.47;5072153;28;19924;-51
2021/12/12 05:17:26;;;;;;;;;;;;;;;10.83;100.00;101760.72;5072969;28;20019;-49
2021/12/12 05:19:57;;;;;;;;;;;;;;;10.72;100.00;101770.81;5073711;28;19920;-53
2021/12/12 05:22:30;;;;;;;;;;;;;;;10.98;100.00;101755.47;5074129;28;19920;-51
2021/12/12 05:24:58;;;;;;;;;;;;;;;11.00;100.00;101750.78;5073457;28;20443;-53
2021/12/12 05:27:25;;;;;;;;;;;;;;;10.86;100.00;101749.69;5073587;28;20311;-52
2021/12/12 05:30:05;;;;;;;;;;;;;;;10.91;100.00;101758.03;5073019;28;19921;-51
2021/12/12 05:32:32;;;;;;;;;;;;;;;10.90;100.00;101767.06;5073205;28;20020;-49
2021/12/12 05:34:57;;;;;;;;;;;;;;;11.14;100.00;101773.28;5073536;28;19924;-54
2021/12/12 05:37:24;;;;;;;;;;;;;;;10.80;100.00;101763.75;5072987;28;20407;-47
2021/12/12 05:39:50;;;;;;;;;;;;;;;11.25;100.00;101756.81;5073092;28;19927;-48
2021/12/12 05:42:17;;;;;;;;;;;;;;;11.30;100.00;101767.84;5073785;28;19924;-48
2021/12/12 05:44:43;;;;;;;;;;;;;;;11.18;100.00;101754.00;5073541;28;19932;-46
2021/12/12 05:47:10;;;;;;;;;;;;;;;11.40;100.00;101754.19;5072603;28;20405;-48
2021/12/12 05:49:37;;;;;;;;;;;;;;;11.41;100.00;101761.22;5071638;28;19956;-46
2021/12/12 05:52:05;;;;;;;;;;;;;;;11.23;100.00;101758.84;5072709;28;19927;-47
2021/12/12 05:54:30;;;;;;;;;;;;;;;11.46;100.00;101760.69;5072897;28;19928;-47
2021/12/12 05:56:58;;;;;;;;;;;;;;;11.39;100.00;101759.75;5071524;28;20422;-48
2021/12/12 05:59:23;;;;;;;;;;;;;;;11.09;100.00;101755.06;5073217;28;19920;-49
2021/12/12 06:01:49;;;;;;;;;;;;;;;11.68;100.00;101755.50;5072739;28;20003;-46
2021/12/12 06:04:16;;;;;;;;;;;;;;;11.33;100.00;101766.63;5072800;28;19925;-47
2021/12/12 06:06:42;;;;;;;;;;;;;;;11.40;100.00;101772.13;5072663;28;19921;-49
2021/12/12 06:09:09;;;;;;;;;;;;;;;11.30;100.00;101778.56;5072735;28;20307;-50
2021/12/12 06:11:36;;;;;;;;;;;;;;;11.62;100.00;101787.38;5072600;28;19920;-51
2021/12/12 06:14:03;;;;;;;;;;;;;;;11.48;100.00;101786.28;5073125;28;19920;-52
2021/12/12 06:16:29;;;;;;;;;;;;;;;11.61;100.00;101777.66;5054895;28;19927;-48
2021/12/12 06:19:00;;;;;;;;;;;;;;;11.81;100.00;101781.69;5073052;28;19924;-49
2021/12/12 06:21:26;;;;;;;;;;;;;;;11.71;100.00;101785.47;5073353;28;19920;-49
2021/12/12 06:23:52;;;;;;;;;;;;;;;11.51;100.00;101795.00;5073116;28;19943;-52
2021/12/12 06:26:19;;;;;;;;;;;;;;;11.79;100.00;101787.25;5073242;28;19920;-48
2021/12/12 06:28:44;;;;;;;;;;;;;;;11.38;100.00;101777.66;5072564;28;19920;-48
2021/12/12 06:31:10;;;;;;;;;;;;;;;11.54;100.00;101786.59;5072748;28;19920;-51
2021/12/12 06:33:37;;;;;;;;;;;;;;;11.24;100.00;101763.19;5071415;28;19924;-49
2021/12/12 06:36:04;;;;;;;;;;;;;;;11.59;100.00;101765.44;5072434;28;19925;-53
2021/12/12 06:38:29;;;;;;;;;;;;;;;11.39;100.00;101755.19;5055349;28;20012;-47
2021/12/12 06:40:55;;;;;;;;;;;;;;;11.51;100.00;101763.66;5072539;28;20329;-47
2021/12/12 06:43:21;;;;;;;;;;;;;;;11.63;100.00;101761.38;5071043;28;19978;-50
2021/12/12 06:45:48;;;;;;;;;;;;;;;11.75;100.00;101764.47;5071309;28;19992;-52
2021/12/12 06:48:14;;;;;;;;;;;;;;;11.72;100.00;101760.31;5072287;28;19917;-49
2021/12/12 06:50:41;;;;;;;;;;;;;;;11.88;100.00;101763.88;5075943;28;19965;-52
2021/12/12 06:53:07;;;;;;;;;;;;;;;11.96;100.00;101765.63;5076410;28;19977;-49
2021/12/12 06:55:34;;;;;;;;;;;;;;;11.94;100.00;101767.66;5076495;28;20388;-51
2021/12/12 06:58:00;;;;;;;;;;;;;;;12.02;100.00;101765.78;5076050;28;19928;-51
2021/12/12 07:00:27;;;;;;;;;;;;;;;12.17;100.00;101773.84;5074876;28;19920;-51
2021/12/12 07:02:53;;;;;;;;;;;;;;;12.30;100.00;101781.25;5076216;28;19921;-52
2021/12/12 07:05:20;;;;;;;;;;;;;;;12.01;100.00;101780.19;5076459;28;20267;-48
2021/12/12 07:07:46;;;;;;;;;;;;;;;11.85;100.00;101786.50;5075839;28;19927;-50
2021/12/12 07:10:13;;;;;;;;;;;;;;;12.30;100.00;101789.31;5076040;28;20240;-49
2021/12/12 07:12:40;;;;;;;;;;;;;;;11.97;100.00;101788.75;5074603;28;19971;-52
2021/12/12 07:15:07;;;;;;;;;;;;;;;11.96;100.00;101795.13;5074712;28;19924;-49
2021/12/12 07:17:33;;;;;;;;;;;;;;;12.14;100.00;101797.53;5075964;28;20007;-52
2021/12/12 07:19:58;;;;;;;;;;;;;;;12.57;100.00;101807.63;5074804;28;19960;-49
2021/12/12 07:22:24;;;;;;;;;;;;;;;12.44;100.00;101800.25;5074335;28;20022;-49
2021/12/12 07:24:50;;;;;;;;;;;;;;;12.30;100.00;101794.66;5075862;28;19920;-47
2021/12/12 07:27:17;;;;;;;;;;;;;;;12.11;100.00;101800.53;5075552;28;20291;-48
2021/12/12 07:29:43;;;;;;;;;;;;;;;12.24;100.00;101800.78;5075515;28;19983;-50
2021/12/12 07:32:08;;;;;;;;;;;;;;;12.54;100.00;101808.84;5075448;28;20013;-47
2021/12/12 07:34:34;;;;;;;;;;;;;;;12.46;100.00;101804.41;5076268;28;19928;-50
2021/12/12 07:37:02;;;;;;;;;;;;;;;12.82;100.00;101808.19;5075732;28;19927;-51
2021/12/12 07:39:28;;;;;;;;;;;;;;;12.45;100.00;101808.09;5075305;28;19964;-51
2021/12/12 07:41:55;;;;;;;;;;;;;;;12.58;100.00;101818.19;5075658;28;19928;-51
2021/12/12 07:44:25;;;;;;;;;;;;;;;12.34;100.00;101811.22;5075359;28;19966;-49
2021/12/12 07:46:51;;;;;;;;;;;;;;;12.39;100.00;101814.19;5073969;28;19924;-49
2021/12/12 07:49:24;;;;;;;;;;;;;;;12.44;100.00;101811.78;5073733;28;19944;-52
2021/12/12 07:51:49;;;;;;;;;;;;;;;12.51;100.00;101813.75;5075408;28;20023;-49
2021/12/12 07:54:15;;;;;;;;;;;;;;;12.44;100.00;101816.34;5073789;28;20306;-51
2021/12/12 07:56:42;;;;;;;;;;;;;;;12.45;100.00;101818.00;5075269;28;19920;-50
2021/12/12 07:59:08;;;;;;;;;;;;;;;12.44;100.00;101825.19;5074922;28;19978;-48
2021/12/12 08:01:34;;;;;;;;;;;;;;;12.40;100.00;101831.94;5073536;28;20330;-50
2021/12/12 08:03:59;;;;;;;;;;;;;;;12.32;100.00;101832.03;5074716;28;19935;-51
2021/12/12 08:06:25;;;;;;;;;;;;;;;12.65;100.00;101839.75;5075074;28;19920;-49
2021/12/12 08:08:51;;;;;;;;;;;;;;;12.62;100.00;101850.84;5074099;28;19924;-50
2021/12/12 08:11:18;;;;;;;;;;;;;;;12.47;100.00;101843.63;5073498;28;19920;-53
2021/12/12 08:13:43;;;;;;;;;;;;;;;12.81;100.00;101851.31;5074917;28;20062;-53
2021/12/12 08:16:09;;;;;;;;;;;;;;;12.82;100.00;101850.31;5074402;28;20333;-54
2021/12/12 08:18:37;;;;;;;;;;;;;;;12.64;100.00;101851.50;5074407;28;19925;-54
2021/12/12 08:21:03;;;;;;;;;;;;;;;12.65;100.00;101853.16;5074458;28;19920;-51
2021/12/12 08:23:28;;;;;;;;;;;;;;;12.60;100.00;101848.38;5040471;28;19921;-52
2021/12/12 08:25:54;;;;;;;;;;;;;;;12.73;100.00;101860.28;5074052;28;20292;-53
2021/12/12 08:28:20;;;;;;;;;;;;;;;12.70;100.00;101858.81;5072853;28;20333;-52
2021/12/12 08:30:46;;;;;;;;;;;;;;;12.73;100.00;101863.81;5073930;28;19939;-47
2021/12/12 08:33:12;;;;;;;;;;;;;;;12.67;100.00;101864.53;5072564;28;19926;-51
2021/12/12 08:35:38;;;;;;;;;;;;;;;12.92;100.00;101872.34;5072798;28;19924;-51
2021/12/12 08:38:05;;;;;;;;;;;;;;;12.69;100.00;101870.59;5073793;28;19927;-53
2021/12/12 08:40:33;;;;;;;;;;;;;;;13.01;100.00;101862.31;5073864;28;19964;-49
2021/12/12 08:42:58;;;;;;;;;;;;;;;12.98;100.00;101873.44;5072952;28;19973;-48
2021/12/12 08:45:26;;;;;;;;;;;;;;;13.11;100.00;101865.56;5074166;28;19992;-52
2021/12/12 08:47:52;;;;;;;;;;;;;;;13.13;100.00;101878.78;5073097;28;20337;-49
2021/12/12 08:50:19;;;;;;;;;;;;;;;13.02;100.00;101870.19;5073829;28;19928;-52
2021/12/12 08:52:47;;;;;;;;;;;;;;;12.75;100.00;101879.72;5073332;28;19985;-49
2021/12/12 08:55:18;;;;;;;;;;;;;;;13.00;100.00;101877.59;5073909;28;19921;-47
2021/12/12 08:58:03;;;;;;;;;;;;;;;13.02;100.00;101883.63;5074113;28;19931;-47
2021/12/12 09:00:37;;;;;;;;;;;;;;;13.26;100.00;101888.88;5073503;28;20085;-47
2021/12/12 09:03:03;;;;;;;;;;;;;;;13.26;100.00;101887.03;5072491;28;19928;-50
2021/12/12 09:05:34;;;;;;;;;;;;;;;13.24;100.00;101889.06;5072997;28;20395;-51
2021/12/12 09:08:05;;;;;;;;;;;;;;;13.41;100.00;101894.25;5073475;28;19920;-52
2021/12/12 09:10:33;;;;;;;;;;;;;;;13.08;100.00;101910.75;5073491;28;19955;-48
2021/12/12 09:12:59;;;;;;;;;;;;;;;13.24;100.00;101902.50;5072893;28;20233;-51
2021/12/12 09:15:34;;;;;;;;;;;;;;;13.02;100.00;101920.38;5071619;28;20386;-50
2021/12/12 09:18:05;;;;;;;;;;;;;;;13.37;100.00;101900.97;5073598;28;19920;-50
2021/12/12 09:20:46;;;;;;;;;;;;;;;13.29;100.00;101905.44;5073293;28;19956;-51
2021/12/12 09:23:16;;;;;;;;;;;;;;;13.58;100.00;101914.50;5073196;28;19927;-53
2021/12/12 09:25:50;;;;;;;;;;;;;;;13.46;100.00;101916.03;5071503;28;20399;-52
2021/12/12 09:28:30;;;;;;;;;;;;;;;13.78;100.00;101919.28;5073506;28;20008;-49
2021/12/12 09:30:58;;;;;;;;;;;;;;;13.30;100.00;101919.72;5072688;28;19920;-53
2021/12/12 09:33:26;;;;;;;;;;;;;;;13.24;100.00;101921.31;5072726;28;19920;-49
2021/12/12 09:35:55;;;;;;;;;;;;;;;13.34;100.00;101935.25;5054788;28;19920;-54
2021/12/12 09:38:29;;;;;;;;;;;;;;;13.22;100.00;101934.09;5071275;28;20000;-52
2021/12/12 09:41:04;;;;;;;;;;;;;;;13.38;100.00;101924.13;5072120;28;19943;-50
2021/12/12 09:43:29;;;;;;;;;;;;;;;13.43;100.00;101927.16;5072368;28;19921;-51
2021/12/12 09:46:04;;;;;;;;;;;;;;;13.37;100.00;101928.69;5072313;28;20022;-51
2021/12/12 09:51:20;;;;;;;;;;;;;;;13.40;100.00;101946.31;5072493;28;19921;-54
2021/12/12 09:54:04;;;;;;;;;;;;;;;13.42;100.00;101930.84;5054382;28;19921;-48
2021/12/12 09:56:49;;;;;;;;;;;;;;;13.47;100.00;101936.50;5072208;28;19921;-48
2021/12/12 09:59:32;;;;;;;;;;;;;;;13.30;100.00;101933.97;5073113;28;20344;-50
2021/12/12 10:01:57;;;;;;;;;;;;;;;13.35;100.00;101944.19;5072697;28;20004;-51
2021/12/12 10:04:28;;;;;;;;;;;;;;;13.40;100.00;101938.25;5071878;28;20284;-46
2021/12/12 10:07:03;;;;;;;;;;;;;;;13.29;100.00;101937.69;5071974;28;19948;-47
2021/12/12 10:09:33;;;;;;;;;;;;;;;13.30;100.00;101933.16;5070795;28;19921;-49
2021/12/12 10:12:08;;;;;;;;;;;;;;;13.25;100.00;101944.47;5070817;28;19930;-49
2021/12/12 10:14:43;;;;;;;;;;;;;;;13.29;100.00;101945.75;5071804;28;20011;-48
2021/12/12 10:17:13;;;;;;;;;;;;;;;13.70;100.00;101938.22;5072222;28;19927;-48
2021/12/12 10:19:41;;;;;;;;;;;;;;;13.49;100.00;101942.50;5072031;28;19921;-49
2021/12/12 10:22:25;;;;;;;;;;;;;;;13.86;100.00;101948.75;5071524;28;19928;-57
2021/12/12 10:24:58;;;;;;;;;;;;;;;13.54;100.00;101942.78;5075110;28;19928;-49
2021/12/12 10:27:28;;;;;;;;;;;;;;;13.53;100.00;101943.00;5074728;28;19982;-49
2021/12/12 10:29:53;;;;;;;;;;;;;;;13.69;100.00;101941.94;5058595;28;19928;-52
2021/12/12 10:32:22;;;;;;;;;;;;;;;13.82;100.00;101947.44;5077076;28;19916;-52
2021/12/12 10:34:52;;;;;;;;;;;;;;;13.99;100.00;101939.13;5076059;28;19924;-54
2021/12/12 10:37:22;;;;;;;;;;;;;;;14.11;100.00;101937.63;5076381;28;19970;-52
2021/12/12 10:40:08;;;;;;;;;;;;;;;13.72;100.00;101939.66;5076590;28;19928;-53
2021/12/12 10:42:42;;;;;;;;;;;;;;;13.56;100.00;101926.47;5074788;28;20000;-51
2021/12/12 10:45:09;;;;;;;;;;;;;;;13.77;100.00;101941.81;5075146;28;20364;-52
2021/12/12 10:47:48;;;;;;;;;;;;;;;13.65;100.00;101936.09;5076058;28;19921;-53
2021/12/12 10:50:16;;;;;;;;;;;;;;;13.85;100.00;101930.09;5058503;28;20344;-49
2021/12/12 10:52:53;;;;;;;;;;;;;;;13.51;100.00;101924.34;5075885;28;20014;-47
2021/12/12 10:55:22;;;;;;;;;;;;;;;13.86;100.00;101929.94;5076028;28;19920;-49
2021/12/12 10:57:55;;;;;;;;;;;;;;;13.85;100.00;101930.94;5075839;28;20369;-49
2021/12/12 11:00:23;;;;;;;;;;;;;;;13.80;100.00;101941.41;5076079;28;19928;-49
2021/12/12 11:02:48;;;;;;;;;;;;;;;13.87;100.00;101934.28;5076047;28;20057;-48
2021/12/12 11:05:17;;;;;;;;;;;;;;;13.90;100.00;101944.66;5076844;28;20114;-49
2021/12/12 11:07:48;;;;;;;;;;;;;;;13.69;100.00;101931.19;5076149;28;20018;-52
2021/12/12 11:10:17;;;;;;;;;;;;;;;13.76;100.00;101929.38;5075731;28;19920;-53
2021/12/12 11:12:48;;;;;;;;;;;;;;;13.98;100.00;101934.78;5076126;28;20058;-53
2021/12/12 11:15:34;;;;;;;;;;;;;;;13.79;100.00;101937.06;5075584;28;20256;-51
2021/12/12 11:18:26;;;;;;;;;;;;;;;13.96;100.00;101931.47;5075553;28;19990;-53
2021/12/12 11:21:12;;;;;;;;;;;;;;;14.13;100.00;101932.03;5074498;28;19964;-53
2021/12/12 11:23:53;;;;;;;;;;;;;;;14.12;100.00;101933.06;5075007;28;19920;-53
2021/12/12 11:26:26;;;;;;;;;;;;;;;13.88;100.00;101922.50;5074515;28;19928;-52
2021/12/12 11:28:54;;;;;;;;;;;;;;;13.99;100.00;101921.16;5075639;28;19983;-51
2021/12/12 11:31:25;;;;;;;;;;;;;;;14.03;100.00;101926.97;5076100;28;19920;-52
2021/12/12 11:33:52;;;;;;;;;;;;;;;14.04;100.00;101924.09;5075083;28;19931;-51
2021/12/12 11:36:25;;;;;;;;;;;;;;;14.13;100.00;101915.88;5073576;28;19935;-54
2021/12/12 11:38:51;;;;;;;;;;;;;;;14.47;100.00;101917.84;5075716;28;19970;-52
2021/12/12 11:41:16;;;;;;;;;;;;;;;14.15;100.00;101920.06;5074910;28;20353;-48
2021/12/12 11:43:48;;;;;;;;;;;;;;;14.49;100.00;101928.41;5073968;28;20061;-53
2021/12/12 11:46:20;;;;;;;;;;;;;;;14.05;100.00;101924.91;5075388;28;19920;-50
2021/12/12 11:48:48;;;;;;;;;;;;;;;14.27;100.00;101935.66;5074892;28;19927;-54
2021/12/12 11:51:32;;;;;;;;;;;;;;;14.43;100.00;101938.09;5075143;28;19952;-48
2021/12/12 11:54:08;;;;;;;;;;;;;;;14.45;100.00;101943.31;5075185;28;20445;-52
2021/12/12 11:56:45;;;;;;;;;;;;;;;14.71;100.00;101947.25;5075287;28;19931;-51
2021/12/12 11:59:46;;;;;;;;;;;;;;;14.48;100.00;101946.41;5074955;28;20380;-51
2021/12/12 12:02:17;;;;;;;;;;;;;;;14.65;100.00;101946.13;5036158;28;19921;-55
2021/12/12 12:04:48;;;;;;;;;;;;;;;14.44;100.00;101952.41;5066543;28;19959;-52
2021/12/12 12:07:34;;;;;;;;;;;;;;;14.14;100.00;101952.53;5073738;28;19974;-56
2021/12/12 12:10:03;;;;;;;;;;;;;;;14.32;100.00;101957.47;5074796;28;19927;-54
2021/12/12 12:12:47;;;;;;;;;;;;;;;14.54;100.00;101955.59;5074543;28;20376;-51
2021/12/12 12:15:31;;;;;;;;;;;;;;;14.60;100.00;101957.47;5074314;28;20011;-51
2021/12/12 12:17:59;;;;;;;;;;;;;;;14.51;100.00;101961.34;5074759;28;19928;-53
2021/12/12 12:20:41;;;;;;;;;;;;;;;14.53;100.00;101964.69;5074634;28;19920;-54
2021/12/12 12:23:20;;;;;;;;;;;;;;;14.36;100.00;101964.13;5074908;28;19920;-51
2021/12/12 12:28:38;;;;;;;;;;;;;;;14.90;100.00;101964.56;5074300;28;20029;-53
2021/12/12 12:31:08;;;;;;;;;;;;;;;14.58;100.00;101961.41;5074691;28;19944;-52
2021/12/12 12:33:52;;;;;;;;;;;;;;;14.92;100.00;101959.81;5074612;28;19971;-52
2021/12/12 12:36:23;;;;;;;;;;;;;;;14.39;100.00;101969.13;5074225;28;19924;-50
2021/12/12 12:39:27;;;;;;;;;;;;;;;14.52;100.00;101956.78;5074343;28;19925;-54
2021/12/12 12:42:01;;;;;;;;;;;;;;;14.69;100.00;101966.25;5074306;28;20391;-53
2021/12/12 12:44:30;;;;;;;;;;;;;;;14.98;100.00;101971.69;5074317;28;19931;-50
2021/12/12 12:47:24;;;;;;;;;;;;;;;14.73;100.00;101975.63;5072588;28;19964;-52
2021/12/12 12:50:09;;;;;;;;;;;;;;;14.74;100.00;101971.91;5035755;28;19920;-54
2021/12/12 12:52:54;;;;;;;;;;;;;;;14.48;100.00;101972.50;5074530;28;20360;-49
2021/12/12 12:55:29;;;;;;;;;;;;;;;14.46;100.00;101980.78;5074202;28;19927;-48
2021/12/12 12:58:04;;;;;;;;;;;;;;;14.46;100.00;101970.00;5073765;28;19946;-53
2021/12/12 13:00:31;;;;;;;;;;;;;;;14.61;100.00;101971.78;5073700;28;19921;-55
2021/12/12 13:03:02;;;;;;;;;;;;;;;15.04;100.00;101966.34;5074304;28;20390;-51
2021/12/12 13:06:00;;;;;;;;;;;;;;;14.63;100.00;101975.13;5074236;28;19925;-49
2021/12/12 13:08:44;;;;;;;;;;;;;;;14.65;100.00;101978.44;5061862;28;19927;-49